Manatee — D5FH9 — position and weather

sailwx.info

Track history (hours):
 
Tides and Currents Weather Stations Pressure Air Temp Water Temp Dewpoint Dewpoint Depression Visibility Wind Speed Wind Dir Waves Ship Positions

Manatee

Last reported at 2017-Sep-22 00:22 UTC. Time now 2017-Sep-22 17:19 UTC.
Position N 35°02' W 006°59'.

Length 172 m; draft 6.7 m.

Type: Ship. MMSI: 636016269.

Date/timePositionNaut miles runAvg speedWind from/ knotsBaromVisibWave heightAir tempDewpointWater temp
2017-Sep-22 00:22N 35°02' W 006°59'  
2017-Sep-19 16:53N 33°02' W 009°22'814.1
2017-Sep-19 16:18N 32°56' W 009°29'613.8
2017-Sep-19 15:52N 32°52' W 009°33'814.1
2017-Sep-19 15:17N 32°45' W 009°40'4014.4
2017-Sep-19 12:30N 32°17' W 010°13'815.1
2017-Sep-19 11:57N 32°11' W 010°19'6514.9
2017-Sep-19 07:35N 31°18' W 011°04'113.8
2017-Sep-19 07:29N 31°17' W 011°05'1013.6
2017-Sep-19 06:47N 31°08' W 011°11'414.1
2017-Sep-19 06:30N 31°05' W 011°13'714.7
2017-Sep-19 06:00N 30°59' W 011°18'714.7
2017-Sep-19 05:30N 30°52' W 011°22'714.7
2017-Sep-19 05:01N 30°46' W 011°26'815.0
2017-Sep-19 04:31N 30°40' W 011°31'814.8
2017-Sep-19 04:00N 30°33' W 011°35'714.7
2017-Sep-19 03:30N 30°27' W 011°40'714.4
2017-Sep-19 03:00N 30°21' W 011°45'714.8
2017-Sep-19 02:30N 30°15' W 011°49'714.5
2017-Sep-19 02:00N 30°09' W 011°54'7314.9
2017-Sep-18 21:06N 29°08' W 012°39'1215.1
2017-Sep-18 20:20N 28°58' W 012°47'514.6
2017-Sep-18 19:59N 28°54' W 012°50'1114.9
2017-Sep-18 19:14N 28°45' W 012°57'615.0
2017-Sep-18 18:49N 28°40' W 013°01'514.9
2017-Sep-18 18:30N 28°36' W 013°04'714.7
2017-Sep-18 18:01N 28°29' W 013°08'714.8
2017-Sep-18 17:31N 28°23' W 013°12'714.9
2017-Sep-18 17:01N 28°17' W 013°17'714.6
2017-Sep-18 16:31N 28°11' W 013°22'714.6
2017-Sep-18 16:01N 28°05' W 013°26'714.3
2017-Sep-18 15:31N 27°59' W 013°31'714.5
2017-Sep-18 15:01N 27°54' W 013°37'714.4
2017-Sep-18 14:30N 27°49' W 013°43'714.2
2017-Sep-18 14:01N 27°45' W 013°49'714.4
2017-Sep-18 13:31N 27°40' W 013°55'714.7
2017-Sep-18 13:01N 27°35' W 014°01'815.2
2017-Sep-18 12:30N 27°30' W 014°08'815.2
2017-Sep-18 12:00N 27°25' W 014°14'714.7
2017-Sep-18 11:30N 27°20' W 014°20'715.0
2017-Sep-18 11:00N 27°15' W 014°27'714.9
2017-Sep-18 10:30N 27°10' W 014°33'814.8
2017-Sep-18 09:58N 27°04' W 014°39'1514.7
2017-Sep-18 08:58N 26°54' W 014°51'714.6
2017-Sep-18 08:30N 26°50' W 014°57'714.4
2017-Sep-18 08:00N 26°46' W 015°04'914.1
2017-Sep-18 07:23N 26°40' W 015°10'1413.9
2017-Sep-18 06:22N 26°30' W 015°22'513.7
2017-Sep-18 06:00N 26°27' W 015°27'713.8
2017-Sep-18 05:29N 26°22' W 015°33'714.0
2017-Sep-18 04:59N 26°18' W 015°39'714.1
2017-Sep-18 04:29N 26°13' W 015°44'814.5
2017-Sep-18 03:57N 26°08' W 015°51'713.9
2017-Sep-18 03:25N 26°03' W 015°57'613.7
2017-Sep-18 02:59N 25°58' W 016°01'1013.8
2017-Sep-18 02:14N 25°49' W 016°07'413.8
2017-Sep-18 01:57N 25°46' W 016°09'913.8
2017-Sep-18 01:20N 25°39' W 016°14'613.9
2017-Sep-18 00:55N 25°34' W 016°17'713.9
2017-Sep-18 00:24N 25°27' W 016°21'714.1
2017-Sep-17 23:55N 25°21' W 016°25'814.3
2017-Sep-17 23:23N 25°15' W 016°29'2314.2
2017-Sep-17 21:44N 24°54' W 016°41'21914.5
2017-Sep-17 06:33N 21°39' W 018°30'515.6
2017-Sep-17 06:12N 21°33' W 018°30'315.5
2017-Sep-17 06:00N 21°30' W 018°30'4015.4
2017-Sep-17 03:23N 20°50' W 018°30'  
Track history (hours):
 
Tides and Currents Weather Stations Pressure Air Temp Water Temp Dewpoint Dewpoint Depression Visibility Wind Speed Wind Dir Waves Ship Positions

Manatee

Last reported at 2017-Sep-22 00:22 UTC. Time now 2017-Sep-22 17:19 UTC.
Position N 35°02' W 006°59'.

Length 172 m; draft 6.7 m.

Type: Ship. MMSI: 636016269.

Date/timePositionNaut miles runAvg speedWind from/ knotsBaromVisibWave heightAir tempDewpointWater temp
2017-Sep-22 00:22N 35°02' W 006°59'  
2017-Sep-19 16:53N 33°02' W 009°22'814.1
2017-Sep-19 16:18N 32°56' W 009°29'613.8
2017-Sep-19 15:52N 32°52' W 009°33'814.1
2017-Sep-19 15:17N 32°45' W 009°40'4014.4
2017-Sep-19 12:30N 32°17' W 010°13'815.1
2017-Sep-19 11:57N 32°11' W 010°19'6514.9
2017-Sep-19 07:35N 31°18' W 011°04'113.8
2017-Sep-19 07:29N 31°17' W 011°05'1013.6
2017-Sep-19 06:47N 31°08' W 011°11'414.1
2017-Sep-19 06:30N 31°05' W 011°13'714.7
2017-Sep-19 06:00N 30°59' W 011°18'714.7
2017-Sep-19 05:30N 30°52' W 011°22'714.7
2017-Sep-19 05:01N 30°46' W 011°26'815.0
2017-Sep-19 04:31N 30°40' W 011°31'814.8
2017-Sep-19 04:00N 30°33' W 011°35'714.7
2017-Sep-19 03:30N 30°27' W 011°40'714.4
2017-Sep-19 03:00N 30°21' W 011°45'714.8
2017-Sep-19 02:30N 30°15' W 011°49'714.5
2017-Sep-19 02:00N 30°09' W 011°54'7314.9
2017-Sep-18 21:06N 29°08' W 012°39'1215.1
2017-Sep-18 20:20N 28°58' W 012°47'514.6
2017-Sep-18 19:59N 28°54' W 012°50'1114.9
2017-Sep-18 19:14N 28°45' W 012°57'615.0
2017-Sep-18 18:49N 28°40' W 013°01'514.9
2017-Sep-18 18:30N 28°36' W 013°04'714.7
2017-Sep-18 18:01N 28°29' W 013°08'714.8
2017-Sep-18 17:31N 28°23' W 013°12'714.9
2017-Sep-18 17:01N 28°17' W 013°17'714.6
2017-Sep-18 16:31N 28°11' W 013°22'714.6
2017-Sep-18 16:01N 28°05' W 013°26'714.3
2017-Sep-18 15:31N 27°59' W 013°31'714.5
2017-Sep-18 15:01N 27°54' W 013°37'714.4
2017-Sep-18 14:30N 27°49' W 013°43'714.2
2017-Sep-18 14:01N 27°45' W 013°49'714.4
2017-Sep-18 13:31N 27°40' W 013°55'714.7
2017-Sep-18 13:01N 27°35' W 014°01'815.2
2017-Sep-18 12:30N 27°30' W 014°08'815.2
2017-Sep-18 12:00N 27°25' W 014°14'714.7
2017-Sep-18 11:30N 27°20' W 014°20'715.0
2017-Sep-18 11:00N 27°15' W 014°27'714.9
2017-Sep-18 10:30N 27°10' W 014°33'814.8
2017-Sep-18 09:58N 27°04' W 014°39'1514.7
2017-Sep-18 08:58N 26°54' W 014°51'714.6
2017-Sep-18 08:30N 26°50' W 014°57'714.4
2017-Sep-18 08:00N 26°46' W 015°04'914.1
2017-Sep-18 07:23N 26°40' W 015°10'1413.9
2017-Sep-18 06:22N 26°30' W 015°22'513.7
2017-Sep-18 06:00N 26°27' W 015°27'713.8
2017-Sep-18 05:29N 26°22' W 015°33'714.0
2017-Sep-18 04:59N 26°18' W 015°39'714.1
2017-Sep-18 04:29N 26°13' W 015°44'814.5
2017-Sep-18 03:57N 26°08' W 015°51'713.9
2017-Sep-18 03:25N 26°03' W 015°57'613.7
2017-Sep-18 02:59N 25°58' W 016°01'1013.8
2017-Sep-18 02:14N 25°49' W 016°07'413.8
2017-Sep-18 01:57N 25°46' W 016°09'913.8
2017-Sep-18 01:20N 25°39' W 016°14'613.9
2017-Sep-18 00:55N 25°34' W 016°17'713.9
2017-Sep-18 00:24N 25°27' W 016°21'714.1
2017-Sep-17 23:55N 25°21' W 016°25'814.3
2017-Sep-17 23:23N 25°15' W 016°29'2314.2
2017-Sep-17 21:44N 24°54' W 016°41'21914.5
2017-Sep-17 06:33N 21°39' W 018°30'515.6
2017-Sep-17 06:12N 21°33' W 018°30'315.5
2017-Sep-17 06:00N 21°30' W 018°30'4015.4
2017-Sep-17 03:23N 20°50' W 018°30'  

Dump ship's entire track history